Time;durP1;ratioP1;P1;durP2;ratioP2;P2;SDS_P1;SDS_P2;PMS_P1;PMS_P2;Temp;Humidity;BMP_temperature;BMP_pressure;BME280_temperature;BME280_humidity;BME280_pressure;Samples;Min_cycle;Max_cycle;Signal;HPM_P1;HPM_P2
2022/11/29 00:00:29;;;;;;;14.47;12.83;;;;;;;6.56;100.00;153046.56;4992148;28;20440;-87
2022/11/29 00:03:14;;;;;;;16.10;13.37;;;;;;;6.56;100.00;153046.56;4999289;28;20448;-86
2022/11/29 00:06:06;;;;;;;14.93;12.97;;;;;;;6.56;100.00;153046.56;4988723;28;20447;-87
2022/11/29 00:08:51;;;;;;;15.03;13.40;;;;;;;6.57;100.00;153049.13;4974455;28;20441;-87
2022/11/29 00:14:40;;;;;;;16.20;13.67;;;;;;;6.57;100.00;153049.13;4976688;28;20485;-87
2022/11/29 00:17:26;;;;;;;15.80;14.10;;;;;;;6.57;100.00;153047.81;4984848;28;20781;-86
2022/11/29 00:20:12;;;;;;;18.63;14.03;;;;;;;6.57;100.00;153049.13;4990872;28;20508;-87
2022/11/29 00:22:58;;;;;;;15.07;13.47;;;;;;;6.57;100.00;153049.13;4991358;28;20584;-86
2022/11/29 00:25:44;;;;;;;15.33;13.73;;;;;;;6.57;100.00;153047.81;5000807;28;20440;-87
2022/11/29 00:28:29;;;;;;;14.10;12.67;;;;;;;6.57;100.00;153047.81;4998478;28;20472;-87
2022/11/29 00:31:18;;;;;;;15.27;13.57;;;;;;;6.58;100.00;153051.72;4976458;28;20465;-87
2022/11/29 00:34:06;;;;;;;15.33;13.13;;;;;;;6.59;100.00;153053.00;4982862;28;20460;-86
2022/11/29 00:36:51;;;;;;;14.80;12.73;;;;;;;6.60;100.00;153055.56;4991365;28;20796;-86
2022/11/29 00:39:37;;;;;;;14.03;12.50;;;;;;;6.59;100.00;153054.28;4995573;28;20433;-86
2022/11/29 00:42:23;;;;;;;15.23;12.00;;;;;;;6.61;100.00;153058.16;4991988;28;20465;-86
2022/11/29 00:45:09;;;;;;;16.67;13.67;;;;;;;6.60;100.00;153055.56;4992506;28;20814;-86
2022/11/29 00:47:54;;;;;;;15.50;12.40;;;;;;;6.61;100.00;153058.16;4994776;28;20503;-86
2022/11/29 00:50:39;;;;;;;16.93;12.97;;;;;;;6.61;100.00;153059.47;4996177;28;20428;-87
2022/11/29 00:53:24;;;;;;;13.57;12.17;;;;;;;6.61;100.00;153058.16;4993368;28;20543;-87
2022/11/29 00:56:11;;;;;;;13.50;12.10;;;;;;;6.61;100.00;153059.47;4985284;28;20943;-87
2022/11/29 00:58:57;;;;;;;14.67;13.10;;;;;;;6.62;100.00;153060.72;4987082;28;20464;-87
2022/11/29 01:01:42;;;;;;;15.30;13.40;;;;;;;6.61;100.00;153058.16;4986861;28;20481;-86
2022/11/29 01:04:27;;;;;;;16.23;12.37;;;;;;;6.60;100.00;153056.88;4988094;28;21023;-86
2022/11/29 01:07:13;;;;;;;13.67;12.10;;;;;;;6.60;100.00;153055.56;4992929;28;20888;-86
2022/11/29 01:09:58;;;;;;;13.53;12.13;;;;;;;6.59;100.00;153054.28;5013177;28;20478;-87
2022/11/29 01:12:45;;;;;;;18.43;13.10;;;;;;;6.58;100.00;153051.72;4983113;28;20476;-86
2022/11/29 01:15:30;;;;;;;13.97;12.50;;;;;;;6.58;100.00;153051.72;4993545;28;20457;-86
2022/11/29 01:18:15;;;;;;;15.93;12.50;;;;;;;6.58;100.00;153050.41;4994022;28;20444;-86
2022/11/29 01:21:07;;;;;;;15.60;12.80;;;;;;;6.58;100.00;153051.72;4988604;28;20740;-86
2022/11/29 01:23:53;;;;;;;15.63;12.93;;;;;;;6.57;100.00;153047.81;4993736;28;20588;-86
2022/11/29 01:26:38;;;;;;;16.50;12.70;;;;;;;6.58;100.00;153051.72;5005797;28;20524;-87
2022/11/29 01:29:25;;;;;;;14.10;11.90;;;;;;;6.57;100.00;153047.81;4992760;28;20436;-86
2022/11/29 01:32:11;;;;;;;13.37;11.70;;;;;;;6.56;100.00;153045.25;4989845;28;20401;-86
2022/11/29 01:34:56;;;;;;;14.63;12.33;;;;;;;6.57;100.00;153047.81;5015612;28;20460;-86
2022/11/29 01:37:42;;;;;;;15.20;13.07;;;;;;;6.56;100.00;153045.25;5006222;28;20460;-86
2022/11/29 01:40:27;;;;;;;16.73;13.30;;;;;;;6.57;100.00;153047.81;4993541;28;20453;-86
2022/11/29 01:43:15;;;;;;;13.80;12.40;;;;;;;6.57;100.00;153047.81;4993117;28;20464;-86
2022/11/29 01:46:02;;;;;;;15.50;13.00;;;;;;;6.58;100.00;153050.41;4994247;28;20433;-86
2022/11/29 01:48:48;;;;;;;14.23;12.73;;;;;;;6.57;100.00;153047.81;4993432;28;20473;-86
2022/11/29 01:51:35;;;;;;;17.03;12.23;;;;;;;6.57;100.00;153047.81;4994310;28;20496;-86
2022/11/29 01:54:21;;;;;;;13.80;12.30;;;;;;;6.57;100.00;153049.13;4992470;28;20514;-86
2022/11/29 01:57:07;;;;;;;16.60;12.30;;;;;;;6.57;100.00;153047.81;5002437;28;20449;-86
2022/11/29 01:59:56;;;;;;;14.30;11.80;;;;;;;6.58;100.00;153050.41;4995281;28;20513;-86
2022/11/29 02:02:50;;;;;;;15.40;12.33;;;;;;;6.58;100.00;153050.41;4985490;28;20499;-86
2022/11/29 02:05:36;;;;;;;12.67;10.53;;;;;;;6.57;100.00;153049.13;4994358;28;20409;-87
2022/11/29 02:08:26;;;;;;;14.13;10.93;;;;;;;6.57;100.00;153047.81;4994345;28;20437;-87
2022/11/29 02:11:30;;;;;;;13.47;11.80;;;;;;;6.57;100.00;153049.13;4993868;28;20453;-86
2022/11/29 02:14:29;;;;;;;11.70;10.30;;;;;;;6.59;100.00;153053.00;4993951;28;20524;-86
2022/11/29 02:17:20;;;;;;;12.53;10.33;;;;;;;6.57;100.00;153047.81;5005223;28;20496;-87
2022/11/29 02:20:39;;;;;;;14.50;11.73;;;;;;;6.58;100.00;153050.41;4983587;28;20458;-86
2022/11/29 02:23:46;;;;;;;12.50;10.90;;;;;;;6.60;100.00;153055.56;4983337;28;20796;-87
2022/11/29 02:26:54;;;;;;;13.40;11.30;;;;;;;6.60;100.00;153055.56;4994783;28;20440;-87
2022/11/29 02:30:04;;;;;;;15.80;11.80;;;;;;;6.60;100.00;153056.88;4989944;28;20929;-87
2022/11/29 02:33:13;;;;;;;13.63;10.53;;;;;;;6.59;100.00;153053.00;4994105;28;20533;-86
2022/11/29 02:36:19;;;;;;;12.60;10.90;;;;;;;6.60;100.00;153055.56;4994126;28;20598;-86
2022/11/29 02:39:25;;;;;;;15.00;11.90;;;;;;;6.60;100.00;153056.88;5011083;28;20432;-87
2022/11/29 02:42:47;;;;;;;15.00;11.50;;;;;;;6.62;100.00;153060.72;4992883;28;20472;-86
2022/11/29 02:45:44;;;;;;;14.40;10.57;;;;;;;6.61;100.00;153058.16;4993863;28;20508;-86
2022/11/29 02:48:55;;;;;;;12.20;10.63;;;;;;;6.62;100.00;153062.03;4985062;28;20449;-86
2022/11/29 02:51:43;;;;;;;11.80;9.90;;;;;;;6.63;100.00;153063.31;4992932;28;20448;-86
2022/11/29 02:54:34;;;;;;;14.10;11.40;;;;;;;6.64;100.00;153065.91;4993242;28;20440;-86
2022/11/29 02:57:25;;;;;;;12.13;9.93;;;;;;;6.64;100.00;153065.91;4976880;28;20460;-86
2022/11/29 03:00:14;;;;;;;10.63;9.23;;;;;;;6.66;100.00;153071.06;4992020;28;20456;-86
2022/11/29 03:03:03;;;;;;;11.80;10.00;;;;;;;6.66;100.00;153071.06;4993063;28;20995;-86
2022/11/29 03:05:55;;;;;;;13.17;10.13;;;;;;;6.66;100.00;153071.06;4978301;28;20891;-86
2022/11/29 03:08:47;;;;;;;11.57;9.50;;;;;;;6.67;100.00;153074.91;4994115;28;20429;-86
2022/11/29 03:11:39;;;;;;;9.90;8.80;;;;;;;6.67;100.00;153074.91;4992338;28;20484;-86
2022/11/29 03:14:27;;;;;;;9.77;8.77;;;;;;;6.67;100.00;153073.66;4993916;28;20437;-87
2022/11/29 03:17:20;;;;;;;9.13;7.90;;;;;;;6.68;100.00;153076.22;4993416;28;20839;-87
2022/11/29 03:20:22;;;;;;;10.23;8.30;;;;;;;6.68;100.00;153076.22;4977454;28;20843;-86
2022/11/29 03:23:19;;;;;;;12.30;10.17;;;;;;;6.68;100.00;153076.22;4960242;28;21116;-87
2022/11/29 03:26:07;;;;;;;10.20;8.63;;;;;;;6.68;100.00;153076.22;5003421;28;20487;-87
2022/11/29 03:28:59;;;;;;;11.00;8.97;;;;;;;6.68;100.00;153077.50;5004323;28;20460;-86
2022/11/29 03:31:50;;;;;;;10.20;9.00;;;;;;;6.68;100.00;153076.22;5012446;28;20759;-86
2022/11/29 03:34:47;;;;;;;12.27;10.40;;;;;;;6.69;100.00;153078.81;5008360;28;20464;-87
2022/11/29 03:37:38;;;;;;;11.57;10.00;;;;;;;6.70;100.00;153081.38;4989697;28;20450;-87
2022/11/29 03:40:29;;;;;;;13.63;10.43;;;;;;;6.69;100.00;153078.81;4997315;28;20504;-86
2022/11/29 03:43:18;;;;;;;13.50;10.47;;;;;;;6.69;100.00;153078.81;5012211;28;20655;-87
2022/11/29 03:46:06;;;;;;;12.33;10.10;;;;;;;6.69;100.00;153080.13;4987809;28;20449;-86
2022/11/29 03:48:54;;;;;;;10.30;9.13;;;;;;;6.70;100.00;153082.66;4974083;28;20770;-86
2022/11/29 03:51:49;;;;;;;9.70;8.70;;;;;;;6.70;100.00;153081.38;4985386;28;20806;-87
2022/11/29 03:54:42;;;;;;;13.67;11.60;;;;;;;6.71;100.00;153083.97;4992367;28;20539;-87
2022/11/29 03:57:33;;;;;;;11.37;8.77;;;;;;;6.71;100.00;153083.97;4990453;28;20448;-86
2022/11/29 04:00:19;;;;;;;13.47;9.77;;;;;;;6.72;100.00;153086.56;4995983;28;20497;-86
2022/11/29 04:03:40;;;;;;;11.90;9.63;;;;;;;6.72;100.00;153086.56;4995779;28;20536;-86
2022/11/29 04:06:39;;;;;;;10.07;8.80;;;;;;;6.72;100.00;153086.56;4986078;28;20440;-86
2022/11/29 04:09:41;;;;;;;11.67;9.07;;;;;;;6.73;100.00;153089.13;4996965;28;20561;-86
2022/11/29 04:12:54;;;;;;;9.37;8.37;;;;;;;6.72;100.00;153087.81;4993401;28;20475;-86
2022/11/29 04:16:13;;;;;;;9.90;8.30;;;;;;;6.73;100.00;153090.41;5001053;28;20573;-87
2022/11/29 04:19:29;;;;;;;10.40;9.30;;;;;;;6.73;100.00;153089.13;4982116;28;20520;-86
2022/11/29 04:22:33;;;;;;;10.03;7.70;;;;;;;6.74;100.00;153091.72;4980518;28;20465;-87
2022/11/29 04:25:35;;;;;;;12.20;8.70;;;;;;;6.74;100.00;153091.72;4994226;28;20476;-87
2022/11/29 04:28:40;;;;;;;8.80;7.90;;;;;;;6.75;100.00;153094.31;4991758;28;20781;-87
2022/11/29 04:31:34;;;;;;;9.77;8.37;;;;;;;6.75;100.00;153094.31;4997117;28;20607;-87
2022/11/29 04:34:46;;;;;;;9.23;8.30;;;;;;;6.76;100.00;153096.88;4998244;28;20460;-87
2022/11/29 04:37:49;;;;;;;9.27;8.27;;;;;;;6.76;100.00;153096.88;5012787;28;20759;-86
2022/11/29 04:41:05;;;;;;;13.03;9.50;;;;;;;6.76;100.00;153096.88;5001473;28;20456;-86
2022/11/29 04:44:16;;;;;;;9.40;7.50;;;;;;;6.77;100.00;153099.47;4993380;28;20654;-87
2022/11/29 04:47:13;;;;;;;10.13;7.67;;;;;;;6.77;100.00;153098.19;4982398;28;20418;-87
2022/11/29 04:50:23;;;;;;;8.43;7.40;;;;;;;6.77;100.00;153099.47;4995417;28;20512;-87
2022/11/29 04:53:28;;;;;;;8.80;7.57;;;;;;;6.78;100.00;153100.78;4979951;28;20437;-87
2022/11/29 04:56:20;;;;;;;8.07;6.93;;;;;;;6.78;100.00;153102.03;4984172;28;20989;-87
2022/11/29 04:59:12;;;;;;;8.30;7.07;;;;;;;6.78;100.00;153102.03;4983257;28;20452;-87
2022/11/29 05:02:05;;;;;;;8.30;7.33;;;;;;;6.77;100.00;153099.47;4982476;28;20825;-87
2022/11/29 05:04:53;;;;;;;6.73;6.03;;;;;;;6.77;100.00;153099.47;4981116;28;20438;-87
2022/11/29 05:07:49;;;;;;;6.80;6.07;;;;;;;6.78;100.00;153102.03;4995877;28;20456;-87
2022/11/29 05:11:03;;;;;;;5.43;4.93;;;;;;;6.80;100.00;153105.91;4978455;28;20795;-87
2022/11/29 05:13:56;;;;;;;6.13;4.90;;;;;;;6.81;100.00;153108.47;4990673;28;20448;-86
2022/11/29 05:16:48;;;;;;;6.83;5.27;;;;;;;6.80;100.00;153105.91;4989582;28;20472;-87
2022/11/29 05:19:46;;;;;;;5.70;4.83;;;;;;;6.80;100.00;153107.22;4989215;28;20432;-87
2022/11/29 05:22:36;;;;;;;5.77;4.83;;;;;;;6.79;100.00;153104.63;5009128;28;20987;-87
2022/11/29 05:25:34;;;;;;;5.97;4.40;;;;;;;6.81;100.00;153109.78;4990711;28;20569;-87
2022/11/29 05:28:26;;;;;;;5.60;4.63;;;;;;;6.83;100.00;153114.94;4993634;28;20472;-87
2022/11/29 05:31:20;;;;;;;6.43;5.10;;;;;;;6.84;100.00;153117.53;4989733;28;20449;-87
2022/11/29 05:34:42;;;;;;;4.87;4.37;;;;;;;6.85;100.00;153118.81;4990774;28;20433;-86
2022/11/29 05:37:35;;;;;;;4.93;4.20;;;;;;;6.85;100.00;153120.13;4964128;28;20915;-85
2022/11/29 05:40:38;;;;;;;4.83;4.33;;;;;;;6.84;100.00;153116.22;4981071;28;20555;-87
2022/11/29 05:43:41;;;;;;;4.73;3.67;;;;;;;6.84;100.00;153116.22;4979839;28;20549;-86
2022/11/29 05:46:29;;;;;;;4.93;4.43;;;;;;;6.82;100.00;153112.38;5012693;28;20452;-85
2022/11/29 05:49:20;;;;;;;4.30;3.90;;;;;;;6.84;100.00;153117.53;4997324;28;20799;-86
2022/11/29 05:52:21;;;;;;;4.80;4.20;;;;;;;6.84;100.00;153117.53;4980515;28;20896;-85
2022/11/29 05:55:18;;;;;;;4.10;3.50;;;;;;;6.82;100.00;153112.38;5000737;28;20424;-85
2022/11/29 05:58:08;;;;;;;5.03;4.30;;;;;;;6.84;100.00;153117.53;4988466;28;20453;-85
2022/11/29 06:01:01;;;;;;;6.70;4.57;;;;;;;6.85;100.00;153118.81;5013905;28;20428;-86
2022/11/29 06:03:53;;;;;;;4.30;3.80;;;;;;;6.84;100.00;153117.53;5002753;28;20496;-86
2022/11/29 06:06:43;;;;;;;5.10;3.80;;;;;;;6.84;100.00;153116.22;4990660;28;20460;-86
2022/11/29 06:09:33;;;;;;;5.43;4.37;;;;;;;6.85;100.00;153120.13;4994651;28;20595;-87
2022/11/29 06:12:21;;;;;;;5.23;3.93;;;;;;;6.84;100.00;153117.53;4989523;28;20473;-87
2022/11/29 06:15:33;;;;;;;4.50;4.10;;;;;;;6.84;100.00;153117.53;4982059;28;20503;-87
2022/11/29 06:18:31;;;;;;;5.40;4.90;;;;;;;6.86;100.00;153121.44;5002369;28;21044;-87
2022/11/29 06:21:22;;;;;;;5.17;4.67;;;;;;;6.87;100.00;153123.97;4991831;28;20457;-86
2022/11/29 06:24:17;;;;;;;4.20;3.67;;;;;;;6.85;100.00;153120.13;4998100;28;20540;-86
2022/11/29 06:27:18;;;;;;;4.30;3.90;;;;;;;6.86;100.00;153121.44;4992502;28;20456;-86
2022/11/29 06:30:08;;;;;;;4.10;3.70;;;;;;;6.85;100.00;153120.13;4989793;28;20435;-86
2022/11/29 06:33:01;;;;;;;5.97;5.07;;;;;;;6.86;100.00;153122.69;4996264;28;20456;-87
2022/11/29 06:35:48;;;;;;;4.60;4.10;;;;;;;6.84;100.00;153117.53;4989962;28;20500;-87
2022/11/29 06:38:34;;;;;;;5.20;4.13;;;;;;;6.84;100.00;153117.53;4992247;28;20641;-87
2022/11/29 06:41:22;;;;;;;5.80;5.20;;;;;;;6.84;100.00;153116.22;4985702;28;20444;-87
2022/11/29 06:44:10;;;;;;;7.47;5.43;;;;;;;6.83;100.00;153114.94;4991544;28;20496;-86
2022/11/29 06:46:59;;;;;;;6.50;5.30;;;;;;;6.86;100.00;153121.44;4992047;28;20576;-86
2022/11/29 06:49:47;;;;;;;6.10;5.50;;;;;;;6.86;100.00;153121.44;4995003;28;20643;-87
2022/11/29 06:52:39;;;;;;;9.03;7.37;;;;;;;6.86;100.00;153122.69;4989943;28;20510;-86
2022/11/29 06:55:27;;;;;;;7.27;6.10;;;;;;;6.85;100.00;153120.13;4985380;28;20912;-86
2022/11/29 06:58:25;;;;;;;8.90;6.80;;;;;;;6.84;100.00;153116.22;4975859;28;21040;-85
2022/11/29 07:05:24;;;;;;;7.53;6.50;;;;;;;6.87;100.00;153125.28;4989637;28;20966;-87
2022/11/29 07:08:13;;;;;;;8.47;6.60;;;;;;;6.87;100.00;153125.28;4985347;28;20452;-86
2022/11/29 07:10:59;;;;;;;7.70;6.80;;;;;;;6.88;100.00;153126.59;4979244;28;20453;-86
2022/11/29 07:13:44;;;;;;;7.93;6.53;;;;;;;6.89;100.00;153130.44;4975484;28;20430;-86
2022/11/29 07:16:44;;;;;;;7.93;6.87;;;;;;;6.90;100.00;153133.03;4990047;28;20528;-86
2022/11/29 07:20:00;;;;;;;8.70;7.50;;;;;;;6.89;100.00;153130.44;4981645;28;20471;-86
2022/11/29 07:23:00;;;;;;;7.93;6.67;;;;;;;6.90;100.00;153133.03;4981494;28;20473;-87
2022/11/29 07:26:04;;;;;;;8.63;6.73;;;;;;;6.89;100.00;153130.44;4977854;28;20461;-87
2022/11/29 07:28:59;;;;;;;9.80;6.90;;;;;;;6.90;100.00;153133.03;4990296;28;20803;-87
2022/11/29 07:31:56;;;;;;;8.97;6.90;;;;;;;6.89;100.00;153129.13;4988539;28;20503;-76
2022/11/29 07:34:51;;;;;;;10.70;7.63;;;;;;;6.89;100.00;153130.44;4990398;28;20507;-76
2022/11/29 07:37:52;;;;;;;10.13;8.07;;;;;;;6.89;100.00;153130.44;4994961;28;20444;-76
2022/11/29 07:40:44;;;;;;;8.37;6.97;;;;;;;6.91;100.00;153135.59;4993074;28;20452;-76
2022/11/29 07:43:37;;;;;;;9.07;7.70;;;;;;;6.94;100.00;153143.34;4980997;28;20449;-76
2022/11/29 07:46:22;;;;;;;8.40;6.93;;;;;;;6.94;100.00;153142.03;4993276;28;20307;-76
2022/11/29 07:49:11;;;;;;;10.17;7.20;;;;;;;6.93;100.00;153140.78;4995954;28;20434;-78
2022/11/29 07:51:56;;;;;;;8.83;7.30;;;;;;;6.93;100.00;153140.78;4988722;28;20511;-76
2022/11/29 07:54:41;;;;;;;8.27;5.90;;;;;;;6.93;100.00;153139.47;4996770;28;20560;-78
2022/11/29 07:57:27;;;;;;;10.13;7.57;;;;;;;6.92;100.00;153138.19;4998570;28;20451;-77
2022/11/29 08:00:13;;;;;;;10.17;7.80;;;;;;;6.93;100.00;153140.78;5005528;28;20774;-78
2022/11/29 08:02:59;;;;;;;7.93;6.63;;;;;;;6.94;100.00;153142.03;5003424;28;20615;-78
2022/11/29 08:05:47;;;;;;;7.93;6.17;;;;;;;6.95;100.00;153145.94;4994813;28;20806;-78
2022/11/29 08:08:32;;;;;;;9.63;7.10;;;;;;;6.94;100.00;153143.34;4980296;28;20803;-77
2022/11/29 08:11:18;;;;;;;9.13;6.93;;;;;;;6.95;100.00;153145.94;4980375;28;20422;-77
2022/11/29 08:14:04;;;;;;;8.90;6.43;;;;;;;6.97;100.00;153151.09;4980678;28;20482;-77
2022/11/29 08:16:50;;;;;;;8.80;6.47;;;;;;;6.94;100.00;153143.34;4980163;28;20963;-77
2022/11/29 08:19:35;;;;;;;6.70;5.83;;;;;;;6.97;100.00;153151.09;4994647;28;20920;-77
2022/11/29 08:22:22;;;;;;;7.73;5.93;;;;;;;6.96;100.00;153148.53;4995462;28;20441;-77
2022/11/29 08:25:08;;;;;;;7.97;6.60;;;;;;;6.97;100.00;153151.09;4996279;28;20767;-77
2022/11/29 08:27:54;;;;;;;7.87;5.93;;;;;;;6.98;100.00;153152.38;4995320;28;20484;-77
2022/11/29 08:30:40;;;;;;;7.33;5.53;;;;;;;6.98;100.00;153153.69;4995771;28;20433;-77
2022/11/29 08:33:25;;;;;;;8.60;6.03;;;;;;;6.98;100.00;153153.69;4994394;28;20774;-77
2022/11/29 08:36:14;;;;;;;6.43;5.27;;;;;;;7.01;100.00;153161.44;4995760;28;20412;-77
2022/11/29 08:39:01;;;;;;;7.00;5.20;;;;;;;7.00;100.00;153158.84;4996164;28;20402;-77
2022/11/29 08:41:48;;;;;;;7.77;6.40;;;;;;;7.02;100.00;153164.00;4995362;28;20441;-77
2022/11/29 08:44:34;;;;;;;8.50;6.50;;;;;;;7.01;100.00;153160.13;4989435;28;20453;-78
2022/11/29 08:47:37;;;;;;;8.23;6.10;;;;;;;7.01;100.00;153161.44;4978674;28;20511;-77
2022/11/29 08:50:23;;;;;;;7.10;5.87;;;;;;;7.05;100.00;153171.75;4995716;28;20544;-77
2022/11/29 08:56:14;;;;;;;6.63;5.37;;;;;;;7.07;100.00;153175.66;4995930;28;20425;-77
2022/11/29 08:59:00;;;;;;;6.97;4.83;;;;;;;7.02;100.00;153164.00;4996081;28;20540;-77
2022/11/29 09:01:45;;;;;;;5.63;5.00;;;;;;;7.04;100.00;153169.16;4994905;28;20428;-77
2022/11/29 09:04:30;;;;;;;5.70;4.50;;;;;;;7.04;100.00;153167.91;5005638;28;20459;-77
2022/11/29 09:07:16;;;;;;;6.30;5.27;;;;;;;7.02;100.00;153162.69;4995841;28;21052;-77
2022/11/29 09:10:03;;;;;;;6.17;4.87;;;;;;;7.04;100.00;153169.16;5003995;28;20802;-77
2022/11/29 09:12:53;;;;;;;5.20;4.37;;;;;;;7.03;100.00;153166.59;4980067;28;20478;-77
2022/11/29 09:15:39;;;;;;;3.83;3.43;;;;;;;7.14;100.00;153195.00;4995677;28;20545;-77
2022/11/29 09:18:27;;;;;;;4.70;4.20;;;;;;;7.09;100.00;153182.09;4975020;28;20481;-77
2022/11/29 09:21:13;;;;;;;5.60;4.13;;;;;;;7.06;100.00;153174.34;4995536;28;20890;-77
2022/11/29 09:23:59;;;;;;;4.63;3.97;;;;;;;7.05;100.00;153171.75;4980726;28;20778;-77
2022/11/29 09:26:47;;;;;;;5.90;5.20;;;;;;;7.05;100.00;153171.75;4988774;28;20802;-77
2022/11/29 09:29:33;;;;;;;7.70;5.40;;;;;;;7.13;100.00;153191.09;4982740;28;20794;-77
2022/11/29 09:32:19;;;;;;;7.03;5.77;;;;;;;7.09;100.00;153180.81;4994848;28;20433;-77
2022/11/29 09:35:04;;;;;;;5.63;4.73;;;;;;;7.15;100.00;153196.25;4994420;28;20426;-77
2022/11/29 09:37:50;;;;;;;7.10;4.73;;;;;;;7.11;100.00;153187.25;4987161;28;20449;-77
2022/11/29 09:40:39;;;;;;;7.50;5.83;;;;;;;7.14;100.00;153193.72;4986113;28;20457;-77
2022/11/29 09:43:30;;;;;;;6.37;4.90;;;;;;;7.16;100.00;153198.84;4995422;28;20569;-77
2022/11/29 09:46:25;;;;;;;5.90;4.47;;;;;;;7.16;100.00;153198.84;4983214;28;20464;-77
2022/11/29 09:49:29;;;;;;;14.43;7.10;;;;;;;7.21;100.00;153211.78;4992959;28;20533;-77
2022/11/29 09:52:18;;;;;;;7.80;6.60;;;;;;;7.14;100.00;153195.00;4973010;28;20484;-77
2022/11/29 09:55:13;;;;;;;12.40;8.60;;;;;;;7.11;100.00;153185.94;4995048;28;20452;-77
2022/11/29 09:57:59;;;;;;;8.07;6.80;;;;;;;7.15;100.00;153196.25;4991981;28;20936;-77
2022/11/29 10:00:48;;;;;;;14.87;8.50;;;;;;;7.11;100.00;153187.25;4997223;28;20870;-78
2022/11/29 10:03:39;;;;;;;11.73;8.03;;;;;;;7.13;100.00;153192.41;4993341;28;20469;-77
2022/11/29 10:06:26;;;;;;;10.37;7.47;;;;;;;7.12;100.00;153189.81;4994915;28;20413;-77
2022/11/29 10:09:15;;;;;;;9.63;7.10;;;;;;;7.12;100.00;153189.81;4995037;28;20561;-77
2022/11/29 10:12:06;;;;;;;12.07;6.47;;;;;;;7.10;100.00;153184.66;5004555;28;20471;-78
2022/11/29 10:14:57;;;;;;;44.00;10.10;;;;;;;7.12;100.00;153189.81;5015400;28;20484;-77
2022/11/29 10:17:45;;;;;;;9.20;7.23;;;;;;;7.08;100.00;153179.50;5014465;28;20444;-77
2022/11/29 10:20:34;;;;;;;25.00;8.33;;;;;;;7.15;100.00;153196.25;5014001;28;20772;-77
2022/11/29 10:23:23;;;;;;;29.43;9.10;;;;;;;7.08;100.00;153179.50;5013598;28;20436;-77
2022/11/29 10:26:09;;;;;;;33.47;10.40;;;;;;;7.11;100.00;153187.25;5013933;28;20412;-77
2022/11/29 10:28:56;;;;;;;33.07;10.13;;;;;;;7.08;100.00;153179.50;5010597;28;20818;-77
2022/11/29 10:31:45;;;;;;;73.73;12.13;;;;;;;7.05;100.00;153171.75;5009089;28;21096;-77
2022/11/29 10:34:31;;;;;;;16.33;9.67;;;;;;;7.04;100.00;153167.91;5013674;28;20413;-77
2022/11/29 10:37:19;;;;;;;13.40;9.90;;;;;;;7.14;100.00;153193.72;5012056;28;21065;-77
2022/11/29 10:40:06;;;;;;;17.97;11.03;;;;;;;7.01;100.00;153160.13;4993421;28;20433;-77
2022/11/29 10:42:52;;;;;;;12.57;9.53;;;;;;;7.06;100.00;153173.03;4993906;28;20436;-77
2022/11/29 10:45:42;;;;;;;14.00;11.23;;;;;;;7.00;100.00;153157.53;4993871;28;20459;-77
2022/11/29 10:48:30;;;;;;;15.77;10.77;;;;;;;6.96;100.00;153147.25;5000538;28;20445;-77
2022/11/29 10:51:17;;;;;;;18.60;12.47;;;;;;;6.95;100.00;153145.94;4993719;28;20429;-77
2022/11/29 10:54:17;;;;;;;15.33;11.00;;;;;;;6.95;100.00;153144.63;4989510;28;20586;-77
2022/11/29 10:57:09;;;;;;;18.20;10.80;;;;;;;6.95;100.00;153144.63;4974207;28;20454;-77
2022/11/29 11:00:00;;;;;;;12.93;10.30;;;;;;;6.99;100.00;153155.00;5004642;28;20448;-77
2022/11/29 11:02:45;;;;;;;14.10;10.53;;;;;;;6.92;100.00;153138.19;4984483;28;21088;-77
2022/11/29 11:05:30;;;;;;;15.57;11.00;;;;;;;6.96;100.00;153148.53;4988220;28;20460;-77
2022/11/29 11:08:17;;;;;;;13.70;11.30;;;;;;;6.96;100.00;153148.53;4993472;28;20459;-77
2022/11/29 11:11:06;;;;;;;12.20;10.17;;;;;;;6.89;100.00;153130.44;4990837;28;20453;-77
2022/11/29 11:13:59;;;;;;;12.80;10.60;;;;;;;6.89;100.00;153130.44;4991201;28;20456;-77
2022/11/29 11:16:44;;;;;;;13.33;10.57;;;;;;;6.89;100.00;153129.13;4992995;28;20453;-77
2022/11/29 11:19:31;;;;;;;14.17;11.40;;;;;;;6.90;100.00;153133.03;4994031;28;20436;-77
2022/11/29 11:22:21;;;;;;;13.20;11.30;;;;;;;6.94;100.00;153143.34;5004056;28;20452;-77
2022/11/29 11:25:08;;;;;;;13.57;11.50;;;;;;;6.90;100.00;153133.03;4993624;28;21003;-77
2022/11/29 11:27:56;;;;;;;15.90;12.33;;;;;;;6.92;100.00;153138.19;4978846;28;20452;-77
2022/11/29 11:30:49;;;;;;;17.50;12.27;;;;;;;6.95;100.00;153145.94;4977477;28;20414;-77
2022/11/29 11:33:37;;;;;;;13.63;11.33;;;;;;;6.90;100.00;153133.03;4992520;28;20532;-77
2022/11/29 11:36:23;;;;;;;13.50;11.73;;;;;;;6.91;100.00;153134.34;4995009;28;20404;-77
2022/11/29 11:39:11;;;;;;;13.67;10.17;;;;;;;6.91;100.00;153135.59;5006391;28;20432;-77
2022/11/29 11:45:01;;;;;;;16.43;12.43;;;;;;;6.91;100.00;153135.59;4993627;28;20996;-77
2022/11/29 11:47:49;;;;;;;12.83;11.07;;;;;;;6.90;100.00;153133.03;4993275;28;20441;-77
2022/11/29 11:50:44;;;;;;;14.53;11.10;;;;;;;6.88;100.00;153126.59;4993556;28;20468;-77
2022/11/29 11:53:32;;;;;;;14.30;11.57;;;;;;;6.87;100.00;153125.28;4993327;28;20511;-77
2022/11/29 11:56:18;;;;;;;15.80;11.87;;;;;;;6.86;100.00;153121.44;4992338;28;20484;-77
2022/11/29 11:59:04;;;;;;;14.73;11.70;;;;;;;6.88;100.00;153127.88;4985407;28;20944;-77
2022/11/29 12:01:51;;;;;;;16.20;12.67;;;;;;;6.86;100.00;153122.69;4973613;28;20461;-77
2022/11/29 12:04:37;;;;;;;16.23;11.60;;;;;;;6.86;100.00;153122.69;4973219;28;20453;-77
2022/11/29 12:07:26;;;;;;;17.10;12.60;;;;;;;6.87;100.00;153123.97;4984266;28;20444;-77
2022/11/29 12:10:17;;;;;;;14.20;10.90;;;;;;;6.94;100.00;153143.34;5009650;28;20780;-77
2022/11/29 12:13:02;;;;;;;12.47;10.30;;;;;;;6.89;100.00;153130.44;4978106;28;20615;-77
2022/11/29 12:15:49;;;;;;;13.73;11.50;;;;;;;6.89;100.00;153129.13;5012245;28;20755;-77
2022/11/29 12:18:39;;;;;;;12.77;10.53;;;;;;;6.87;100.00;153125.28;5014531;28;20495;-77
2022/11/29 12:21:28;;;;;;;11.77;10.53;;;;;;;6.90;100.00;153131.72;5012856;28;20457;-78
2022/11/29 12:24:20;;;;;;;14.70;10.73;;;;;;;6.92;100.00;153138.19;4972253;28;20454;-77
2022/11/29 12:27:08;;;;;;;12.00;10.43;;;;;;;6.86;100.00;153122.69;4977170;28;20433;-77
2022/11/29 12:29:54;;;;;;;14.67;10.37;;;;;;;6.89;100.00;153129.13;4992045;28;20531;-77
2022/11/29 12:32:53;;;;;;;10.00;8.90;;;;;;;6.89;100.00;153130.44;4978806;28;20517;-77
2022/11/29 12:35:51;;;;;;;10.70;8.77;;;;;;;6.89;100.00;153130.44;4976905;28;20910;-77
2022/11/29 12:38:48;;;;;;;11.50;9.17;;;;;;;6.88;100.00;153126.59;5001554;28;20546;-77
2022/11/29 12:41:41;;;;;;;11.20;9.27;;;;;;;6.89;100.00;153129.13;4995152;28;20424;-77
2022/11/29 12:44:39;;;;;;;11.00;9.73;;;;;;;6.88;100.00;153127.88;4996878;28;20947;-77
2022/11/29 12:47:35;;;;;;;10.77;9.63;;;;;;;6.87;100.00;153123.97;4996207;28;20433;-77
2022/11/29 12:50:32;;;;;;;11.87;10.37;;;;;;;6.87;100.00;153123.97;4990176;28;20452;-77
2022/11/29 12:53:36;;;;;;;11.77;9.57;;;;;;;6.85;100.00;153118.81;4976710;28;20442;-77
2022/11/29 12:56:26;;;;;;;12.60;10.90;;;;;;;6.80;100.00;153107.22;4993560;28;20449;-77
2022/11/29 12:59:22;;;;;;;10.80;9.70;;;;;;;6.80;100.00;153105.91;4990275;28;21027;-77
2022/11/29 13:02:24;;;;;;;11.80;10.20;;;;;;;6.80;100.00;153107.22;4998428;28;20939;-77
2022/11/29 13:05:17;;;;;;;12.30;10.30;;;;;;;6.82;100.00;153112.38;5014284;28;20463;-77
2022/11/29 13:08:15;;;;;;;12.67;10.17;;;;;;;6.79;100.00;153103.31;5001242;28;20452;-77
2022/11/29 13:11:09;;;;;;;12.77;11.50;;;;;;;6.80;100.00;153107.22;4983409;28;20440;-78
2022/11/29 13:13:58;;;;;;;12.50;11.20;;;;;;;6.82;100.00;153112.38;4980584;28;20519;-77
2022/11/29 13:16:49;;;;;;;12.60;10.70;;;;;;;6.84;100.00;153116.22;4995562;28;20409;-77
2022/11/29 13:19:39;;;;;;;15.20;11.60;;;;;;;6.77;100.00;153099.47;5006991;28;20456;-77
2022/11/29 13:22:29;;;;;;;15.40;11.60;;;;;;;6.77;100.00;153099.47;4997038;28;20441;-77